»·PEaware :: N714BG KSJC-6CA6

N714BG :: KSJC-6CA6

FLIGHT INFORMATION

Flight Status: Arrived
Operator: Privately registered:
United States
More flights under this callsign
Pilot: Sanjiv S. (4490)
Aircraft: CESSNA 172 SKYHAWK
(C172)
More flights by this aircraft type
Origin: KSJC Mineta San Jose Intl
United States
Destination: 6CA6 Fort Mountain Ranch Nr. 2
United States
More flights between these airports :: More routes between these airports
Route: +
File this flight plan on PilotEdge
Remarks:
Altitude:
(Current/Filed)
5,500ft
Speed:
(Current/Filed)
0kts
Departed: 17-Feb-18 09:40 AM
Arrived: 17-Feb-18 10:40 AM
Distance/Time
Traveled:
90nm/0:59
Distance/Time
To Go:
Arrived

Flight Plot

Page will automatically refresh every two minutes.

Flight plan parsing failed; only flown route is shown


Map Options




Map Legend


Flown Route
Filed Route
Departure Airport
Arrival Airport
Navaid (VOR, NDB)
Fix

Horizontal Profiles

Position Reports

Time Latitude Longitude Heading Altitude Ground
Speed
17-Feb-18 09:37 37.352831 -121.921936 49 60ft 0kts
17-Feb-18 09:38 37.352831 -121.921936 49 60ft 0kts
17-Feb-18 09:39 37.352831 -121.921936 49 60ft 0kts
17-Feb-18 09:40 37.352831 -121.921936 49 60ft 0kts
17-Feb-18 09:41 37.352949 -121.921468 79 60ft 9kts
17-Feb-18 09:42 37.352139 -121.919670 55 61ft 0kts
17-Feb-18 09:43 37.352139 -121.919670 54 61ft 0kts
17-Feb-18 09:44 37.352139 -121.919670 55 61ft 0kts
17-Feb-18 09:45 37.352139 -121.919670 55 61ft 0kts
17-Feb-18 09:46 37.352880 -121.919171 344 60ft 4kts
17-Feb-18 09:47 37.363621 -121.930333 316 389ft 77kts
17-Feb-18 09:48 37.379331 -121.945787 357 1025ft 82kts
17-Feb-18 09:49 37.392199 -121.922879 51 1634ft 86kts
17-Feb-18 09:50 37.407026 -121.899442 49 2323ft 79kts
17-Feb-18 09:51 37.418813 -121.881677 49 2937ft 74kts
17-Feb-18 09:52 37.434511 -121.857651 49 3378ft 86kts
17-Feb-18 09:53 37.449639 -121.834560 49 3902ft 84kts
17-Feb-18 09:54 37.464313 -121.812173 49 4336ft 84kts
17-Feb-18 09:55 37.480277 -121.790397 43 4733ft 86kts
17-Feb-18 09:56 37.496598 -121.768695 47 5125ft 87kts
17-Feb-18 09:57 37.512706 -121.744745 50 5433ft 96kts
17-Feb-18 09:58 37.530439 -121.715935 54 5489ft 112kts
17-Feb-18 09:59 37.547537 -121.685264 54 5487ft 100kts
17-Feb-18 10:00 37.563862 -121.656316 54 5488ft 104kts
17-Feb-18 10:01 37.580175 -121.627434 54 5488ft 101kts
17-Feb-18 10:02 37.596460 -121.598678 54 5488ft 100kts
17-Feb-18 10:03 37.612733 -121.569965 54 5488ft 100kts
17-Feb-18 10:04 37.628781 -121.541653 54 5488ft 100kts
17-Feb-18 10:05 37.643654 -121.512068 55 5488ft 100kts
17-Feb-18 10:06 37.659468 -121.483255 54 5488ft 100kts
17-Feb-18 10:07 37.675829 -121.455000 52 5488ft 100kts
17-Feb-18 10:08 37.692541 -121.427264 55 5488ft 100kts
17-Feb-18 10:09 37.708203 -121.398461 54 5488ft 100kts
17-Feb-18 10:10 37.724148 -121.369816 55 5488ft 100kts
17-Feb-18 10:11 37.737553 -121.345214 56 5488ft 100kts
17-Feb-18 10:12 37.753255 -121.316251 54 5488ft 100kts
17-Feb-18 10:13 37.769381 -121.287846 56 5488ft 100kts
17-Feb-18 10:14 37.784979 -121.259072 54 5488ft 100kts
17-Feb-18 10:15 37.800744 -121.230587 55 5488ft 100kts
17-Feb-18 10:16 37.816666 -121.201960 56 5488ft 100kts
17-Feb-18 10:17 37.831717 -121.172548 56 5488ft 100kts
17-Feb-18 10:18 37.850953 -121.147881 45 5488ft 99kts
17-Feb-18 10:19 37.866688 -121.127008 46 5488ft 99kts
17-Feb-18 10:20 37.888595 -121.097061 47 5488ft 100kts
17-Feb-18 10:21 37.907271 -121.071231 47 5488ft 100kts
17-Feb-18 10:22 37.925946 -121.045305 47 5488ft 100kts
17-Feb-18 10:23 37.941424 -121.023780 47 5488ft 100kts
17-Feb-18 10:24 37.963088 -120.993613 47 5488ft 100kts
17-Feb-18 10:25 37.978663 -120.971911 47 5488ft 100kts
17-Feb-18 10:26 37.997200 -120.946028 47 5488ft 100kts
17-Feb-18 10:27 38.018561 -120.915115 48 5488ft 100kts
17-Feb-18 10:28 38.033895 -120.893374 47 5488ft 100kts
17-Feb-18 10:29 38.052301 -120.867548 47 5488ft 100kts
17-Feb-18 10:30 38.070742 -120.841696 47 5488ft 100kts
17-Feb-18 10:31 38.089382 -120.815551 47 5488ft 100kts
17-Feb-18 10:32 38.106573 -120.791420 47 5488ft 100kts
17-Feb-18 10:33 38.124991 -120.765546 47 5488ft 100kts
17-Feb-18 10:34 38.143502 -120.739520 47 5488ft 100kts
17-Feb-18 10:35 38.161951 -120.713561 47 5488ft 100kts
17-Feb-18 10:36 38.180396 -120.687586 47 5488ft 100kts
17-Feb-18 10:37 38.199123 -120.661138 47 5362ft 103kts
17-Feb-18 10:38 38.218440 -120.633883 47 5066ft 105kts
17-Feb-18 10:39 38.237943 -120.606343 47 4769ft 106kts
17-Feb-18 10:40 38.257473 -120.578751 47 4471ft 106kts
17-Feb-18 10:41 38.276934 -120.551072 47 4189ft 106kts
17-Feb-18 10:42 38.298612 -120.526595 33 3921ft 105kts
17-Feb-18 10:43 38.316665 -120.500381 7 3682ft 102kts
17-Feb-18 10:44 38.340391 -120.513781 327 3560ft 93kts
17-Feb-18 10:45 38.332372 -120.520579 95 3555ft 68kts
17-Feb-18 10:46 38.329119 -120.495364 94 3043ft 68kts
17-Feb-18 10:47 38.327830 -120.478746 56 2936ft 0kts
17-Feb-18 10:48 38.327685 -120.477178 133 2965ft 2kts
17-Feb-18 10:49 38.327488 -120.477185 191 2964ft 0kts

Navigation Log

Ident Type
Flight plan parsing failed, navigation log unavailable